Dale City, Virginia
Current Conditions -  °F | °C
As of 3:58 PM on Friday 31 Oct 2014 (Local Time) from KDAA Reporting Station
Overcast Overcast  
Wind Chill: 55°   Ceiling: 5500
Heat Index: 55°   Visibility: 10mi
Dew Point: 34°   Wind: 2mph
Humidity: 45%   Direction: 100°E
Pressure: 29.87"   Gusts: NA
Location:  38.6486°N, 77.3446°W
Report Text: KDAA 311958Z AUTO 10002KT 10SM OVC055 13/01 A2987 RMK AO2 SLP118 T01280011
Loading
Personal Weather Stations






























Interactive Weather Map
Tropical Storm Tracking
New forecast layout! Learn more

10-Day Weather Forecast

Advertisements
Track Severe Weather on mobile